createdAt,value
2023-01-23T00:01:56.546Z,97142.50
2023-01-23T00:04:29.488Z,97142.22
2023-01-23T00:07:04.396Z,97135.09
2023-01-23T00:09:37.285Z,97140.91
2023-01-23T00:12:10.170Z,97137.47
2023-01-23T00:14:43.329Z,97144.09
2023-01-23T00:17:16.198Z,97139.59
2023-01-23T00:19:49.075Z,97137.47
2023-01-23T00:22:23.498Z,97138.00
2023-01-23T00:24:56.501Z,97132.97
2023-01-23T00:27:29.458Z,97133.78
2023-01-23T00:30:02.414Z,97126.38
2023-01-23T00:32:35.352Z,97130.88
2023-01-23T00:35:08.892Z,97135.88
2023-01-23T00:37:43.615Z,97130.88
2023-01-23T00:40:17.293Z,97133.78
2023-01-23T00:42:50.220Z,97132.97
2023-01-23T00:45:23.156Z,97137.22
2023-01-23T00:47:56.013Z,97142.25
2023-01-23T00:50:28.892Z,97138.81
2023-01-23T00:53:03.143Z,97133.78
2023-01-23T00:55:36.077Z,97138.81
2023-01-23T00:58:09.383Z,97138.53
2023-01-23T01:00:42.555Z,97133.50
2023-01-23T01:03:15.464Z,97135.09
2023-01-23T01:05:49.091Z,97139.34
2023-01-23T01:08:23.352Z,97141.44
2023-01-23T01:10:56.430Z,97148.84
2023-01-23T01:13:29.686Z,97148.84
2023-01-23T01:16:02.673Z,97142.75
2023-01-23T01:18:35.692Z,97145.69
2023-01-23T01:21:09.629Z,97152.84
2023-01-23T01:23:43.845Z,97157.31
2023-01-23T01:26:16.983Z,97152.00
2023-01-23T01:28:50.667Z,97150.97
2023-01-23T01:31:24.010Z,97152.28
2023-01-23T01:33:57.073Z,97157.06
2023-01-23T01:36:30.005Z,97157.84
2023-01-23T01:39:04.357Z,97152.81
2023-01-23T01:41:37.387Z,97159.16
2023-01-23T01:44:15.665Z,97162.34
2023-01-23T01:46:49.531Z,97157.31
2023-01-23T01:49:25.300Z,97145.13
2023-01-23T01:52:02.095Z,97152.81
2023-01-23T01:54:41.286Z,97154.66
2023-01-23T01:57:19.719Z,97142.75
2023-01-23T01:59:56.807Z,97134.28
2023-01-23T02:02:32.835Z,97150.44
2023-01-23T02:05:11.024Z,97149.63
2023-01-23T02:07:49.735Z,97153.84
2023-01-23T02:10:24.894Z,97144.31
2023-01-23T02:13:12.609Z,97144.06
2023-01-23T02:15:46.365Z,97146.97
2023-01-23T02:18:19.382Z,97140.34
2023-01-23T02:20:53.901Z,97142.44
2023-01-23T02:23:36.235Z,97132.94
2023-01-23T02:26:13.790Z,97137.16
2023-01-23T02:28:48.709Z,97134.78
2023-01-23T02:31:22.464Z,97147.72
2023-01-23T02:33:57.400Z,97149.84
2023-01-23T02:36:32.682Z,97141.63
2023-01-23T02:39:09.524Z,97147.97
2023-01-23T02:41:46.085Z,97141.38
2023-01-23T02:44:21.328Z,97137.38
2023-01-23T02:46:54.679Z,97131.31
2023-01-23T02:49:28.044Z,97124.16
2023-01-23T02:52:01.333Z,97131.03
2023-01-23T02:54:34.320Z,97126.78
2023-01-23T02:57:08.517Z,97127.88
2023-01-23T02:59:58.774Z,97126.28
2023-01-23T03:02:31.730Z,97129.72
2023-01-23T03:05:04.795Z,97136.31
2023-01-23T03:07:37.772Z,97138.94
2023-01-23T03:10:13.182Z,97141.03
2023-01-23T03:12:47.356Z,97147.38
2023-01-23T03:15:20.203Z,97140.78
2023-01-23T03:17:53.805Z,97143.69
2023-01-23T03:20:28.739Z,97133.63
2023-01-23T03:23:01.660Z,97136.25
2023-01-23T03:25:34.682Z,97140.50
2023-01-23T03:28:28.921Z,97144.44
2023-01-23T03:31:00.832Z,97143.34
2023-01-23T03:33:33.733Z,97151.28
2023-01-23T03:36:08.420Z,97152.31
2023-01-23T03:39:02.487Z,97154.09
2023-01-23T03:41:34.398Z,97150.91
2023-01-23T03:44:08.923Z,97153.78
2023-01-23T03:46:42.062Z,97155.88
2023-01-23T03:49:14.956Z,97153.44
2023-01-23T03:51:47.914Z,97152.38
2023-01-23T03:54:20.797Z,97154.94
2023-01-23T03:56:53.788Z,97161.81
2023-01-23T03:59:28.016Z,97153.34
2023-01-23T04:02:01.436Z,97167.56
2023-01-23T04:04:34.843Z,97157.81
2023-01-23T04:07:08.494Z,97165.16
2023-01-23T04:09:41.383Z,97167.25
2023-01-23T04:12:14.736Z,97165.38
2023-01-23T04:14:48.945Z,97183.84
2023-01-23T04:17:21.899Z,97172.44
2023-01-23T04:19:54.754Z,97179.53
2023-01-23T04:22:27.836Z,97170.81
2023-01-23T04:25:00.662Z,97163.63
2023-01-23T04:27:33.844Z,97176.78
2023-01-23T04:30:10.404Z,97169.38
2023-01-23T04:32:43.423Z,97168.53
2023-01-23T04:35:17.327Z,97180.09
2023-01-23T04:37:50.204Z,97177.72
2023-01-23T04:40:23.109Z,97172.69
2023-01-23T04:42:56.275Z,97173.16
2023-01-23T04:45:30.713Z,97172.38
2023-01-23T04:48:03.916Z,97176.84
2023-01-23T04:50:36.913Z,97176.06
2023-01-23T04:53:09.854Z,97163.13
2023-01-23T04:55:42.955Z,97170.53
2023-01-23T04:58:16.207Z,97167.09
2023-01-23T05:00:50.524Z,97167.41
2023-01-23T05:03:23.370Z,97161.09
2023-01-23T05:05:56.223Z,97166.13
2023-01-23T05:08:29.203Z,97161.38
2023-01-23T05:11:02.065Z,97159.28
2023-01-23T05:13:35.163Z,97156.41
2023-01-23T05:16:09.750Z,97156.44
2023-01-23T05:18:42.673Z,97147.19
2023-01-23T05:21:15.731Z,97151.44
2023-01-23T05:23:48.709Z,97154.81
2023-01-23T05:26:21.982Z,97158.72
2023-01-23T05:28:54.855Z,97162.16
2023-01-23T05:31:29.124Z,97168.25
2023-01-23T05:34:02.168Z,97159.28
2023-01-23T05:36:35.028Z,97167.50
2023-01-23T05:39:07.937Z,97161.97
2023-01-23T05:41:40.797Z,97173.06
2023-01-23T05:44:13.912Z,97175.44
2023-01-23T05:46:48.152Z,97184.69
2023-01-23T05:49:21.046Z,97181.25
2023-01-23T05:51:53.900Z,97189.47
2023-01-23T05:54:26.866Z,97188.41
2023-01-23T05:56:59.754Z,97196.88
2023-01-23T05:59:32.944Z,97197.19
2023-01-23T06:02:07.216Z,97200.34
2023-01-23T06:04:40.606Z,97189.78
2023-01-23T06:07:15.164Z,97199.31
2023-01-23T06:09:48.249Z,97190.59
2023-01-23T06:12:21.263Z,97194.81
2023-01-23T06:14:54.169Z,97185.88
2023-01-23T06:17:28.420Z,97186.97
2023-01-23T06:20:01.301Z,97181.69
2023-01-23T06:22:34.154Z,97183.81
2023-01-23T06:25:08.102Z,97201.28
2023-01-23T06:27:41.185Z,97189.41
2023-01-23T06:30:14.766Z,97201.06
2023-01-23T06:32:48.977Z,97205.84
2023-01-23T06:35:22.590Z,97210.06
2023-01-23T06:37:55.556Z,97213.25
2023-01-23T06:40:28.413Z,97212.44
2023-01-23T06:43:01.321Z,97216.13
2023-01-23T06:45:34.271Z,97222.19
2023-01-23T06:48:08.672Z,97213.50
2023-01-23T06:50:42.496Z,97225.88
2023-01-23T06:53:17.245Z,97214.53
2023-01-23T06:55:50.161Z,97206.88
2023-01-23T06:58:23.068Z,97208.50
2023-01-23T07:00:56.160Z,97206.88
2023-01-23T07:03:30.386Z,97205.06
2023-01-23T07:06:06.721Z,97209.53
2023-01-23T07:08:40.315Z,97203.47
2023-01-23T07:11:13.333Z,97198.19
2023-01-23T07:13:46.195Z,97203.16
2023-01-23T07:16:19.171Z,97193.41
2023-01-23T07:18:54.036Z,97204.50
2023-01-23T07:21:27.175Z,97208.44
2023-01-23T07:24:00.120Z,97204.19
2023-01-23T07:26:33.071Z,97209.47
2023-01-23T07:29:07.253Z,97208.69
2023-01-23T07:31:40.165Z,97213.97
2023-01-23T07:34:15.378Z,97218.44
2023-01-23T07:36:48.536Z,97226.34
2023-01-23T07:39:21.490Z,97226.63
2023-01-23T07:41:54.486Z,97221.63
2023-01-23T07:44:27.586Z,97214.50
2023-01-23T07:47:00.562Z,97221.13
2023-01-23T07:49:34.892Z,97223.25
2023-01-23T07:52:07.869Z,97219.81
2023-01-23T07:54:41.061Z,97233.31
2023-01-23T07:57:14.010Z,97237.53
2023-01-23T07:59:48.606Z,97230.44
2023-01-23T08:02:21.605Z,97228.34
2023-01-23T08:04:55.892Z,97240.00
2023-01-23T08:07:28.860Z,97234.22
2023-01-23T08:10:01.735Z,97236.34
2023-01-23T08:12:35.201Z,97238.50
2023-01-23T08:15:09.301Z,97224.78
2023-01-23T08:17:42.201Z,97215.00
2023-01-23T08:20:17.401Z,97213.72
2023-01-23T08:22:50.473Z,97220.34
2023-01-23T08:25:23.338Z,97227.47
2023-01-23T08:27:56.395Z,97225.63
2023-01-23T08:30:29.391Z,97231.41
2023-01-23T08:33:04.724Z,97216.91
2023-01-23T08:35:39.023Z,97207.41
2023-01-23T08:38:11.945Z,97206.34
2023-01-23T08:40:44.822Z,97204.75
2023-01-23T08:43:18.958Z,97206.91
2023-01-23T08:45:53.517Z,97197.13
2023-01-23T08:48:28.389Z,97200.56
2023-01-23T08:51:05.066Z,97200.84
2023-01-23T08:53:38.507Z,97196.63
2023-01-23T08:56:16.951Z,97196.91
2023-01-23T08:58:51.134Z,97195.84
2023-01-23T09:01:25.706Z,97200.09
2023-01-23T09:03:58.617Z,97203.53
2023-01-23T09:06:32.814Z,97201.69
2023-01-23T09:09:05.827Z,97202.72
2023-01-23T09:11:38.685Z,97198.50
2023-01-23T09:14:11.625Z,97201.94
2023-01-23T09:16:44.637Z,97202.44
2023-01-23T09:19:17.639Z,97207.22
2023-01-23T09:21:53.982Z,97209.06
2023-01-23T09:24:26.869Z,97209.59
2023-01-23T09:26:59.772Z,97204.03
2023-01-23T09:29:32.753Z,97198.50
2023-01-23T09:32:05.907Z,97205.41
2023-01-23T09:34:38.852Z,97205.69
2023-01-23T09:37:13.162Z,97195.38
2023-01-23T09:39:46.177Z,97200.16
2023-01-23T09:42:22.100Z,97201.25
2023-01-23T09:44:58.442Z,97201.53
2023-01-23T09:47:37.672Z,97201.81
2023-01-23T09:50:19.507Z,97194.16
2023-01-23T09:53:00.120Z,97194.19
2023-01-23T09:55:42.292Z,97198.13
2023-01-23T09:58:23.372Z,97193.13
2023-01-23T10:00:56.372Z,97184.97
2023-01-23T10:03:33.049Z,97184.16
2023-01-23T10:06:20.285Z,97178.13
2023-01-23T10:09:09.160Z,97184.47
2023-01-23T10:11:51.695Z,97181.31
2023-01-23T10:15:02.584Z,97181.06
2023-01-23T10:17:43.020Z,97183.97
2023-01-23T10:20:30.360Z,97182.38
2023-01-23T10:23:09.100Z,97186.38
2023-01-23T10:25:44.023Z,97173.16
2023-01-23T10:28:27.918Z,97169.44
2023-01-23T10:31:05.076Z,97163.09
2023-01-23T10:33:44.122Z,97177.66
2023-01-23T10:36:25.323Z,97182.16
2023-01-23T10:39:03.975Z,97171.84
2023-01-23T10:41:39.259Z,97155.97
2023-01-23T10:44:16.757Z,97148.28
2023-01-23T10:46:53.819Z,97147.25
2023-01-23T10:49:32.723Z,97154.91
2023-01-23T10:52:06.280Z,97142.50
2023-01-23T10:54:48.051Z,97137.75
2023-01-23T10:57:26.587Z,97134.31
2023-01-23T11:00:04.555Z,97134.84
2023-01-23T11:02:39.126Z,97130.31
2023-01-23T11:05:50.314Z,97139.06
2023-01-23T11:08:27.743Z,97130.09
2023-01-23T11:11:25.453Z,97125.31
2023-01-23T11:14:13.913Z,97133.78
2023-01-23T11:16:46.789Z,97136.16
2023-01-23T11:19:24.241Z,97125.84
2023-01-23T11:21:59.700Z,97121.88
2023-01-23T11:24:43.172Z,97113.16
2023-01-23T11:27:23.671Z,97117.91
2023-01-23T11:30:26.207Z,97112.63
2023-01-23T11:33:00.683Z,97105.22
2023-01-23T11:35:51.157Z,97103.34
2023-01-23T11:38:31.337Z,97094.63
2023-01-23T11:41:05.642Z,97089.88
2023-01-23T11:43:38.883Z,97101.25
2023-01-23T11:46:24.518Z,97090.66
2023-01-23T11:49:13.419Z,97082.72
2023-01-23T11:51:58.591Z,97079.03
2023-01-23T11:54:46.882Z,97074.25
2023-01-23T11:57:26.946Z,97080.59
2023-01-23T12:00:17.528Z,97068.72
2023-01-23T12:03:43.441Z,97067.63
2023-01-23T12:06:34.715Z,97058.38
2023-01-23T12:09:12.302Z,97064.97
2023-01-23T12:11:58.212Z,97056.50
2023-01-23T12:14:42.998Z,97055.44
2023-01-23T12:17:27.540Z,97064.72
2023-01-23T12:20:27.156Z,97061.25
2023-01-23T12:23:09.829Z,97058.59
2023-01-23T12:25:47.151Z,97061.75
2023-01-23T12:28:46.291Z,97055.69
2023-01-23T12:31:34.533Z,97048.22
2023-01-23T12:34:27.767Z,97056.97
2023-01-23T12:37:29.047Z,97042.41
2023-01-23T12:40:11.395Z,97033.91
2023-01-23T12:42:54.216Z,97024.66
2023-01-23T12:45:29.485Z,97025.44
2023-01-23T12:48:08.503Z,97029.41
2023-01-23T12:50:47.472Z,97036.25
2023-01-23T12:53:24.110Z,97026.75
2023-01-23T12:56:03.135Z,97029.41
2023-01-23T12:58:38.832Z,97020.41
2023-01-23T13:01:22.742Z,97029.41
2023-01-23T13:04:11.555Z,97031.25
2023-01-23T13:06:58.069Z,97036.56
2023-01-23T13:09:45.624Z,97025.97
2023-01-23T13:12:23.221Z,97026.53
2023-01-23T13:15:38.748Z,97038.69
2023-01-23T13:18:28.237Z,97028.66
2023-01-23T13:21:21.983Z,97035.78
2023-01-23T13:24:40.127Z,97027.06
2023-01-23T13:27:36.298Z,97026.03
2023-01-23T13:30:41.815Z,97030.00
2023-01-23T13:33:58.831Z,97033.19
2023-01-23T13:36:38.058Z,97041.66
2023-01-23T13:39:29.958Z,97034.00
2023-01-23T13:42:35.020Z,97039.53
2023-01-23T13:45:31.789Z,97035.03
2023-01-23T14:20:52.860Z,97022.81
2023-01-23T14:23:30.865Z,97011.97
2023-01-23T14:26:05.483Z,97016.47
2023-01-23T14:28:38.427Z,97014.34
2023-01-23T14:31:24.021Z,97010.88
2023-01-23T14:34:09.754Z,97014.31
2023-01-23T14:36:47.266Z,97002.66
2023-01-23T14:39:23.103Z,97002.94
2023-01-23T14:42:02.034Z,97023.84
2023-01-23T14:44:43.428Z,97013.00
2023-01-23T14:47:19.606Z,97021.16
2023-01-23T14:49:53.853Z,97027.00
2023-01-23T14:52:29.983Z,97013.22
2023-01-23T14:55:07.980Z,97032.03
2023-01-23T14:57:41.630Z,97036.00
2023-01-23T15:00:17.960Z,97035.69
2023-01-23T15:02:51.376Z,97029.13
2023-01-23T15:05:27.039Z,97036.78
2023-01-23T15:08:04.216Z,97035.69
2023-01-23T15:10:45.593Z,97029.91
2023-01-23T15:13:24.471Z,97039.16
2023-01-23T15:15:59.689Z,97012.66
2023-01-23T15:18:36.121Z,97042.88
2023-01-23T15:21:10.154Z,97040.25
2023-01-23T15:24:01.688Z,97049.75
2023-01-23T15:26:38.813Z,97040.75
2023-01-23T15:29:20.879Z,97037.84
2023-01-23T15:31:55.681Z,97033.34
2023-01-23T15:34:31.894Z,97030.47
2023-01-23T15:37:08.340Z,97039.47
2023-01-23T15:39:51.772Z,97036.81
2023-01-23T15:42:33.140Z,97034.19
2023-01-23T15:45:14.646Z,97051.13
2023-01-23T15:47:47.511Z,97035.75
2023-01-23T15:50:20.505Z,97033.91
2023-01-23T15:52:54.866Z,97049.28
2023-01-23T15:55:30.479Z,97035.25
2023-01-23T15:58:03.667Z,97040.28
2023-01-23T16:00:38.457Z,97042.09
2023-01-23T16:03:14.614Z,97040.75
2023-01-23T16:05:47.712Z,97029.13
2023-01-23T16:08:23.144Z,97029.91
2023-01-23T16:10:57.470Z,97046.84
2023-01-23T16:13:30.327Z,97036.78
2023-01-23T16:16:03.272Z,97033.34
2023-01-23T16:18:36.148Z,97043.38
2023-01-23T16:21:14.112Z,97041.53
2023-01-23T16:23:48.013Z,97042.84
2023-01-23T16:26:24.529Z,97036.22
2023-01-23T16:29:12.312Z,97036.72
2023-01-23T16:31:45.955Z,97034.88
2023-01-23T16:34:18.951Z,97039.09
2023-01-23T16:36:54.153Z,97048.63
2023-01-23T16:39:30.463Z,97043.88
2023-01-23T16:42:05.132Z,97047.84
2023-01-23T16:44:37.989Z,97043.03
2023-01-23T16:47:10.838Z,97039.06
2023-01-23T16:49:51.959Z,97034.56
2023-01-23T16:52:27.240Z,97038.25
2023-01-23T16:55:00.215Z,97036.69
2023-01-23T16:57:34.967Z,97033.47
2023-01-23T17:00:11.076Z,97041.41
2023-01-23T17:02:45.968Z,97044.84
2023-01-23T17:05:20.130Z,97036.63
2023-01-23T17:07:53.225Z,97037.44
2023-01-23T17:10:37.865Z,97044.06
2023-01-23T17:13:20.837Z,97038.50
2023-01-23T17:15:56.337Z,97043.22
2023-01-23T17:18:30.760Z,97044.00
2023-01-23T17:21:05.703Z,97036.34
2023-01-23T17:23:38.551Z,97064.69
2023-01-23T17:26:17.195Z,97048.53
2023-01-23T17:28:51.441Z,97051.72
2023-01-23T17:31:27.686Z,97050.16
2023-01-23T17:34:01.400Z,97046.69
2023-01-23T17:36:34.637Z,97059.69
2023-01-23T17:39:08.762Z,97066.53
2023-01-23T17:41:41.628Z,97064.19
2023-01-23T17:44:15.899Z,97063.63
2023-01-23T17:46:49.091Z,97061.78
2023-01-23T17:49:29.957Z,97073.69
2023-01-23T17:52:03.422Z,97068.13
2023-01-23T17:54:37.521Z,97081.13
2023-01-23T17:57:10.510Z,97073.16
2023-01-23T17:59:45.253Z,97080.59
2023-01-23T18:02:28.520Z,97070.78
2023-01-23T18:05:01.604Z,97073.69
2023-01-23T18:07:48.468Z,97073.69
2023-01-23T18:10:29.139Z,97067.63
2023-01-23T18:13:14.887Z,97078.72
2023-01-23T18:16:04.585Z,97072.63
2023-01-23T18:18:40.560Z,97075.59
2023-01-23T18:21:18.001Z,97065.53
2023-01-23T18:23:51.507Z,97067.63
2023-01-23T18:26:39.037Z,97066.31
2023-01-23T18:29:23.337Z,97084.06
2023-01-23T18:32:15.157Z,97077.44
2023-01-23T18:34:54.551Z,97090.97
2023-01-23T18:37:37.060Z,97092.31
2023-01-23T18:40:18.173Z,97087.03
2023-01-23T18:42:59.860Z,97085.19
2023-01-23T18:45:33.850Z,97088.13
2023-01-23T18:48:24.647Z,97077.00
2023-01-23T18:51:13.235Z,97079.41
2023-01-23T18:53:54.802Z,97083.38
2023-01-23T18:56:37.499Z,97081.53
2023-01-23T18:59:20.007Z,97080.72
2023-01-23T19:01:55.034Z,97087.38
2023-01-23T19:04:38.336Z,97076.50
2023-01-23T19:07:18.319Z,97088.97
2023-01-23T19:09:51.966Z,97093.47
2023-01-23T19:12:31.285Z,97096.66
2023-01-23T19:15:20.255Z,97088.72
2023-01-23T19:18:05.366Z,97091.63
2023-01-23T19:20:45.850Z,97087.94
2023-01-23T19:23:31.604Z,97085.28
2023-01-23T19:26:07.155Z,97083.69
2023-01-23T19:28:40.558Z,97090.84
2023-01-23T19:31:22.746Z,97086.88
2023-01-23T19:33:56.834Z,97104.59
2023-01-23T19:36:32.933Z,97090.03
2023-01-23T19:39:06.899Z,97100.38
2023-01-23T19:41:44.049Z,97087.94
2023-01-23T19:44:18.444Z,97086.88
2023-01-23T19:46:51.929Z,97092.41
2023-01-23T19:49:26.429Z,97090.28
2023-01-23T19:52:00.700Z,97110.94
2023-01-23T19:54:33.748Z,97114.09
2023-01-23T19:57:07.417Z,97106.16
2023-01-23T19:59:40.336Z,97110.66
2023-01-23T20:02:18.646Z,97105.59
2023-01-23T20:04:51.571Z,97108.78
2023-01-23T20:07:25.991Z,97115.66
2023-01-23T20:09:58.975Z,97106.66
2023-01-23T20:12:31.908Z,97113.53
2023-01-23T20:15:05.101Z,97117.50
2023-01-23T20:17:37.953Z,97116.16
2023-01-23T20:20:13.205Z,97117.47
2023-01-23T20:22:47.575Z,97119.59
2023-01-23T20:25:21.329Z,97116.16
2023-01-23T20:27:54.514Z,97118.50
2023-01-23T20:30:28.543Z,97115.59
2023-01-23T20:33:01.709Z,97120.63
2023-01-23T20:35:38.428Z,97126.72
2023-01-23T20:38:12.698Z,97127.25
2023-01-23T20:40:45.572Z,97142.09
2023-01-23T20:43:19.053Z,97138.13
2023-01-23T20:45:53.595Z,97144.75
2023-01-23T20:48:26.543Z,97143.69
2023-01-23T20:50:59.387Z,97139.19
2023-01-23T20:53:35.033Z,97143.13
2023-01-23T20:56:09.896Z,97136.50
2023-01-23T20:59:01.925Z,97142.09
2023-01-23T21:01:55.740Z,97149.47
2023-01-23T21:04:31.097Z,97146.81
2023-01-23T21:07:04.822Z,97156.63
2023-01-23T21:09:39.085Z,97147.88
2023-01-23T21:12:12.004Z,97149.75
2023-01-23T21:14:44.961Z,97163.00
2023-01-23T21:17:17.842Z,97153.97
2023-01-23T21:19:50.756Z,97159.00
2023-01-23T21:22:23.792Z,97152.13
2023-01-23T21:24:58.134Z,97155.56
2023-01-23T21:27:31.337Z,97158.50
2023-01-23T21:30:04.645Z,97158.50
2023-01-23T21:32:37.572Z,97162.72
2023-01-23T21:35:10.722Z,97159.78
2023-01-23T21:37:43.796Z,97164.81
2023-01-23T21:40:18.531Z,97164.56
2023-01-23T21:42:51.481Z,97153.94
2023-01-23T21:45:25.411Z,97164.81
2023-01-23T21:47:58.753Z,97157.34
2023-01-23T21:50:31.862Z,97165.03
2023-01-23T21:53:04.942Z,97168.50
2023-01-23T21:55:39.228Z,97164.50
2023-01-23T21:58:12.091Z,97164.78
2023-01-23T22:01:17.298Z,97172.47
2023-01-23T22:03:50.770Z,97168.50
2023-01-23T22:06:23.973Z,97166.09
2023-01-23T22:08:57.955Z,97164.25
2023-01-23T22:11:32.608Z,97173.28
2023-01-23T22:14:06.061Z,97176.22
2023-01-23T22:16:54.587Z,97168.25
2023-01-23T22:19:27.794Z,97165.84
2023-01-23T22:22:00.885Z,97183.34
2023-01-23T22:24:33.764Z,97178.03
2023-01-23T22:27:08.109Z,97175.91
2023-01-23T22:29:40.981Z,97179.09
2023-01-23T22:32:13.963Z,97177.50
2023-01-23T22:34:47.053Z,97184.41
2023-01-23T22:37:22.085Z,97186.75
2023-01-23T22:39:55.084Z,97191.56
2023-01-23T22:42:29.363Z,97185.47
2023-01-23T22:45:02.266Z,97185.47
2023-01-23T22:47:35.131Z,97191.03
2023-01-23T22:50:09.050Z,97184.13
2023-01-23T22:52:42.925Z,97188.91
2023-01-23T22:55:16.244Z,97191.81
2023-01-23T22:57:53.429Z,97181.50
2023-01-23T23:00:26.380Z,97179.66
2023-01-23T23:02:59.242Z,97180.72
2023-01-23T23:05:32.116Z,97178.06
2023-01-23T23:08:05.372Z,97177.00
2023-01-23T23:10:38.253Z,97171.72
2023-01-23T23:13:12.588Z,97175.41
2023-01-23T23:15:45.512Z,97184.97
2023-01-23T23:18:18.439Z,97176.47
2023-01-23T23:20:51.437Z,97170.66
2023-01-23T23:23:24.284Z,97175.16
2023-01-23T23:25:58.106Z,97162.69
2023-01-23T23:28:33.160Z,97154.47
2023-01-23T23:31:06.601Z,97171.97
2023-01-23T23:33:39.779Z,97186.03
2023-01-23T23:36:13.248Z,97199.81
2023-01-23T23:38:47.279Z,97198.22
2023-01-23T23:41:20.664Z,97176.47
2023-01-23T23:43:54.928Z,97194.25
2023-01-23T23:46:28.137Z,97182.88
2023-01-23T23:49:00.994Z,97185.00
2023-01-23T23:51:34.018Z,97188.97
2023-01-23T23:54:07.161Z,97197.19
2023-01-23T23:56:40.162Z,97178.91
2023-01-23T23:59:16.998Z,97181.81
